createdAt,value
2022-11-26T00:04:50.061Z,9.38
2022-11-26T00:09:53.597Z,6.68
2022-11-26T00:14:58.188Z,8.13
2022-11-26T00:20:01.349Z,6.88
2022-11-26T00:25:04.851Z,6.53
2022-11-26T00:30:16.265Z,6.72
2022-11-26T00:35:20.062Z,8.65
2022-11-26T00:40:25.884Z,7.20
2022-11-26T00:45:32.321Z,8.05
2022-11-26T00:50:41.430Z,9.25
2022-11-26T00:55:47.712Z,6.70
2022-11-26T01:00:52.831Z,7.82
2022-11-26T01:11:00.169Z,5.57
2022-11-26T01:16:13.635Z,7.35
2022-11-26T01:21:18.023Z,6.78
2022-11-26T01:26:24.394Z,7.83
2022-11-26T01:31:30.737Z,6.45
2022-11-26T01:36:36.389Z,7.57
2022-11-26T01:41:46.689Z,9.10
2022-11-26T01:46:53.277Z,6.53
2022-11-26T01:52:04.867Z,8.48
2022-11-26T01:57:11.822Z,7.80
2022-11-26T02:02:16.550Z,7.13
2022-11-26T02:07:19.791Z,5.70
2022-11-26T02:12:23.273Z,6.13
2022-11-26T02:17:33.816Z,6.30
2022-11-26T02:23:13.759Z,8.77
2022-11-26T02:28:52.318Z,6.90
2022-11-26T02:34:07.059Z,9.88
2022-11-26T02:39:14.903Z,6.90
2022-11-26T02:44:22.444Z,12.00
2022-11-26T02:49:28.917Z,8.88
2022-11-26T02:54:34.823Z,6.72
2022-11-26T02:59:40.141Z,6.43
2022-11-26T03:04:48.761Z,8.00
2022-11-26T03:09:54.490Z,6.50
2022-11-26T03:14:57.653Z,8.82
2022-11-26T03:20:03.702Z,9.93
2022-11-26T03:25:08.654Z,7.00
2022-11-26T03:30:12.586Z,7.82
2022-11-26T03:35:17.178Z,7.82
2022-11-26T03:40:20.381Z,5.88
2022-11-26T03:45:23.962Z,7.47
2022-11-26T03:50:28.519Z,7.93
2022-11-26T03:55:31.723Z,7.53
2022-11-26T04:00:35.080Z,6.32
2022-11-26T04:05:39.788Z,4.38
2022-11-26T04:10:43.052Z,9.25
2022-11-26T04:15:46.410Z,7.20
2022-11-26T04:20:53.276Z,6.40
2022-11-26T04:25:56.593Z,9.48
2022-11-26T04:30:59.793Z,7.10
2022-11-26T04:36:04.495Z,7.22
2022-11-26T04:41:07.703Z,7.18
2022-11-26T04:46:11.031Z,7.85
2022-11-26T04:51:15.733Z,6.90
2022-11-26T04:56:18.953Z,7.93
2022-11-26T05:01:22.267Z,5.72
2022-11-26T05:06:27.032Z,7.32
2022-11-26T05:11:30.281Z,6.85
2022-11-26T05:16:33.625Z,6.30
2022-11-26T05:21:38.356Z,5.13
2022-11-26T05:26:41.589Z,5.10
2022-11-26T05:31:44.940Z,6.65
2022-11-26T05:36:49.742Z,7.55
2022-11-26T05:41:53.001Z,7.75
2022-11-26T05:46:56.332Z,5.43
2022-11-26T05:52:01.153Z,7.70
2022-11-26T05:57:04.430Z,8.02
2022-11-26T06:02:07.927Z,6.85
2022-11-26T06:07:12.771Z,6.75
2022-11-26T06:12:16.128Z,7.60
2022-11-26T06:17:19.314Z,6.72
2022-11-26T06:22:23.957Z,6.15
2022-11-26T06:27:27.289Z,6.88
2022-11-26T06:32:30.716Z,6.50
2022-11-26T06:37:35.403Z,10.13
2022-11-26T06:42:38.681Z,6.85
2022-11-26T06:47:41.865Z,6.10
2022-11-26T06:52:46.844Z,5.88
2022-11-26T06:57:51.805Z,5.47
2022-11-26T07:02:55.126Z,7.25
2022-11-26T07:07:59.918Z,4.80
2022-11-26T07:13:03.215Z,5.97
2022-11-26T07:18:06.456Z,4.45
2022-11-26T07:23:11.160Z,6.22
2022-11-26T07:28:14.489Z,5.45
2022-11-26T07:33:17.774Z,5.13
2022-11-26T07:38:22.367Z,4.20
2022-11-26T07:43:26.076Z,6.30
2022-11-26T07:48:30.667Z,4.80
2022-11-26T07:53:36.998Z,6.03
2022-11-26T07:58:40.273Z,6.38
2022-11-26T08:03:46.232Z,6.53
2022-11-26T08:08:51.418Z,7.93
2022-11-26T08:19:00.155Z,5.40
2022-11-26T08:29:08.689Z,6.07
2022-11-26T09:56:26.940Z,5.30
2022-11-26T10:01:32.015Z,5.40
2022-11-26T10:11:54.602Z,4.30
2022-11-26T10:17:15.006Z,7.82
2022-11-26T10:22:24.456Z,2.97
2022-11-26T10:27:33.516Z,6.18
2022-11-26T10:32:40.266Z,5.60
2022-11-26T10:37:43.519Z,7.18
2022-11-26T10:42:58.250Z,4.50
2022-11-26T10:48:17.049Z,7.40
2022-11-26T10:53:24.095Z,4.88
2022-11-26T10:58:31.737Z,4.50
2022-11-26T11:04:07.347Z,4.63
2022-11-26T11:09:22.708Z,6.80
2022-11-26T11:14:30.354Z,4.47
2022-11-26T11:19:34.713Z,3.90
2022-11-26T11:24:37.905Z,4.83
2022-11-26T11:29:42.890Z,6.30
2022-11-26T11:34:47.530Z,2.22
2022-11-26T11:40:05.658Z,4.32
2022-11-26T11:45:24.170Z,5.25
2022-11-26T11:50:34.256Z,3.10
2022-11-26T11:56:00.895Z,6.53
2022-11-26T12:01:16.138Z,4.43
2022-11-26T12:06:28.730Z,6.40
2022-11-26T12:11:45.700Z,4.22
2022-11-26T12:16:55.180Z,5.80
2022-11-26T12:22:04.807Z,6.45
2022-11-26T12:27:19.049Z,5.95
2022-11-26T12:32:29.451Z,3.20
2022-11-26T12:37:34.042Z,4.20
2022-11-26T12:42:45.416Z,5.53
2022-11-26T12:47:56.712Z,3.58
2022-11-26T12:53:05.840Z,7.22
2022-11-26T12:58:14.176Z,6.72
2022-11-26T13:03:23.296Z,5.88
2022-11-26T13:08:39.938Z,7.35
2022-11-26T13:13:49.573Z,6.75
2022-11-26T13:18:57.748Z,5.65
2022-11-26T13:24:19.898Z,5.70
2022-11-26T13:29:53.301Z,4.18
2022-11-26T13:35:16.607Z,4.57
2022-11-26T13:40:58.772Z,5.93
2022-11-26T13:46:09.845Z,4.85
2022-11-26T13:51:21.292Z,4.75
2022-11-26T13:56:27.855Z,6.20
2022-11-26T14:01:37.184Z,3.65
2022-11-26T14:07:20.502Z,6.15
2022-11-26T14:12:25.683Z,6.80
2022-11-26T14:17:33.865Z,5.93
2022-11-26T14:22:40.330Z,6.80
2022-11-26T14:27:50.979Z,6.30
2022-11-26T14:33:09.705Z,5.03
2022-11-26T14:38:27.193Z,7.35
2022-11-26T14:43:30.671Z,5.72
2022-11-26T14:48:36.864Z,6.55
2022-11-26T14:53:51.152Z,6.30
2022-11-26T14:58:56.079Z,4.63
2022-11-26T15:04:02.049Z,5.50
2022-11-26T15:09:18.032Z,5.75
2022-11-26T15:14:27.662Z,5.05
2022-11-26T15:19:34.851Z,5.55
2022-11-26T15:24:40.156Z,6.70
2022-11-26T15:29:50.807Z,6.75
2022-11-26T15:34:55.691Z,6.57
2022-11-26T15:40:12.001Z,7.43
2022-11-26T15:45:17.431Z,6.47
2022-11-26T15:50:27.618Z,6.22
2022-11-26T15:55:36.280Z,6.45
2022-11-26T16:00:41.751Z,6.15
2022-11-26T16:05:55.371Z,8.55
2022-11-26T16:11:07.762Z,7.55
2022-11-26T16:16:17.606Z,10.05
2022-11-26T16:21:24.550Z,10.38
2022-11-26T16:26:30.658Z,11.10
2022-11-26T16:31:34.017Z,7.63
2022-11-26T16:36:37.168Z,9.48
2022-11-26T16:41:41.770Z,6.68
2022-11-26T16:46:52.330Z,7.30
2022-11-26T16:51:55.479Z,7.30
2022-11-26T16:57:00.093Z,7.30
2022-11-26T17:02:03.455Z,6.25
2022-11-26T17:07:06.732Z,7.60
2022-11-26T17:12:18.330Z,9.73
2022-11-26T17:17:25.601Z,8.32
2022-11-26T17:22:29.130Z,10.10
2022-11-26T17:27:34.095Z,11.20
2022-11-26T17:37:40.962Z,11.52
2022-11-26T18:02:14.648Z,16.75
2022-11-26T18:12:25.726Z,18.97
2022-11-26T18:17:30.340Z,16.95
2022-11-26T18:22:33.657Z,20.10
2022-11-26T18:27:37.173Z,24.00
2022-11-26T18:32:41.955Z,20.40
2022-11-26T18:37:45.140Z,21.52
2022-11-26T18:42:53.361Z,18.98
2022-11-26T18:47:57.896Z,26.58
2022-11-26T18:53:01.045Z,23.77
2022-11-26T18:58:07.956Z,21.58
2022-11-26T19:03:13.931Z,22.83
2022-11-26T19:08:17.408Z,25.95
2022-11-26T19:13:20.596Z,30.20
2022-11-26T19:18:25.162Z,26.55
2022-11-26T19:23:28.365Z,24.05
2022-11-26T19:28:31.580Z,22.23
2022-11-26T19:33:36.491Z,23.15
2022-11-26T19:38:40.138Z,20.83
2022-11-26T19:43:44.153Z,19.30
2022-11-26T19:48:51.077Z,17.13
2022-11-26T19:53:56.160Z,19.13
2022-11-26T20:04:06.692Z,19.27
2022-11-26T20:09:10.795Z,15.68
2022-11-26T20:14:15.591Z,14.27
2022-11-26T20:19:20.175Z,12.10
2022-11-26T20:24:23.296Z,13.15
2022-11-26T20:29:26.462Z,12.63
2022-11-26T20:34:36.868Z,14.52
2022-11-26T20:39:40.275Z,13.48
2022-11-26T20:44:43.580Z,13.25
2022-11-26T20:49:48.548Z,17.17
2022-11-26T20:54:53.887Z,15.27
2022-11-26T20:59:57.272Z,13.77
2022-11-26T21:05:02.325Z,15.65
2022-11-26T21:15:09.711Z,14.43
2022-11-26T21:20:15.753Z,14.33
2022-11-26T21:25:18.909Z,16.08
2022-11-26T21:30:22.081Z,14.40
2022-11-26T21:35:26.714Z,16.38
2022-11-26T21:40:30.276Z,14.27
2022-11-26T21:45:33.473Z,14.40
2022-11-26T21:50:38.099Z,16.90
2022-11-26T21:55:41.307Z,13.82
2022-11-26T22:00:44.723Z,16.67
2022-11-26T22:06:04.724Z,17.23
2022-11-26T22:11:34.256Z,14.32
2022-11-26T22:16:45.877Z,15.25
2022-11-26T22:21:51.190Z,17.02
2022-11-26T22:27:06.933Z,15.27
2022-11-26T22:32:11.650Z,15.20
2022-11-26T22:37:16.453Z,17.15
2022-11-26T22:42:19.919Z,19.38
2022-11-26T22:47:23.100Z,16.00
2022-11-26T22:52:28.115Z,16.92
2022-11-26T22:57:31.278Z,16.70
2022-11-26T23:02:35.009Z,13.05
2022-11-26T23:07:39.758Z,16.40
2022-11-26T23:12:42.943Z,13.65
2022-11-26T23:17:46.099Z,14.93
2022-11-26T23:22:50.661Z,13.13
2022-11-26T23:27:53.803Z,16.75
2022-11-26T23:32:56.951Z,18.45
2022-11-26T23:38:01.508Z,13.88
2022-11-26T23:43:08.475Z,15.98
2022-11-26T23:48:11.905Z,16.15
2022-11-26T23:53:16.553Z,15.85
2022-11-26T23:58:20.293Z,13.15
